METAR Data
IDs: Format: Raw Decoded Include TAF

Data at: 2232 UTC 24 Mar 2019

KHYI 242156Z 22008KT 170V230 10SM CLR 29/17 A3000 RMK AO2 SLP150 T02890172
KHYI 242056Z 19010KT 10SM BKN045 28/18 A3002 RMK AO2 SLP156 T02830178 58023
KHYI 241956Z 21009KT 10SM SCT036 OVC043 27/18 A3004 RMK AO2 SLP165 T02720183
KHYI 241856Z 21009G14KT 10SM OVC033 25/18 A3007 RMK AO2 SLP175 T02500178
KHYI 241827Z 21011G14KT 10SM FEW023 OVC031 25/18 A3008 RMK AO2
KHYI 241756Z 19010KT 10SM FEW019 OVC029 24/18 A3009 RMK AO2 SLP181 T02390183 10244 20183 58009
KHYI 241656Z 19012KT 10SM SCT018 OVC023 22/18 A3011 RMK AO2 SLP188 T02220178
KHYI 241617Z 20010KT 10SM SCT014 OVC025 22/18 A3012 RMK AO2
KHYI 241556Z 20012KT 10SM BKN012 OVC027 22/18 A3011 RMK AO2 SLP190 T02170183
KHYI 241456Z 20011KT 10SM OVC010 20/18 A3011 RMK AO2 SLP190 T02000178 50003
KHYI 241453Z 19010KT 10SM OVC010 20/18 A3011 RMK AO2
KHYI 241356Z 18008KT 10SM BKN008 OVC022 19/17 A3011 RMK AO2 SLP187 T01890172
KHYI 241352Z 17008KT 10SM BKN008 OVC022 19/18 A3011 RMK AO2
KHYI 241339Z 18008KT 10SM SCT008 OVC022 19/18 A3010 RMK AO2
KHYI 241318Z 19007KT 10SM BKN008 OVC017 19/17 A3010 RMK AO2 CIG 007V014
KHYI 241256Z 18006KT 10SM BKN012 OVC019 18/17 A3009 RMK AO2 SLP180 T01830172
KHYI 241219Z 18004KT 10SM OVC009 18/17 A3008 RMK AO2 CIG 008V013
KHYI 241156Z 19004KT 10SM OVC011 18/17 A3007 RMK AO2 SLP176 T01830172 10189 20183 51004
KHYI 241056Z AUTO 14005KT 10SM OVC011 18/17 A3007 RMK AO2 SLP176 T01830172
KHYI 240956Z AUTO 13004KT 10SM OVC011 18/17 A3007 RMK AO2 SLP173 T01830172
KHYI 240920Z AUTO 16005KT 10SM OVC013 19/17 A3006 RMK AO2
KHYI 240856Z AUTO 17006KT 10SM OVC015 19/17 A3006 RMK AO2 SLP173 T01890172 58002
KHYI 240842Z AUTO 18005KT 10SM OVC015 19/17 A3006 RMK AO2
KHYI 240756Z AUTO 18005KT 10SM OVC011 19/17 A3007 RMK AO2 SLP176 T01890172
KHYI 240656Z AUTO 18006KT 10SM OVC013 19/17 A3007 RMK AO2 SLP177 T01890172
KHYI 240556Z AUTO 16008KT 10SM OVC014 19/17 A3007 RMK AO2 SLP175 T01890167 10217 20189 402440156 58005
KHYI 240533Z AUTO 16007KT 10SM OVC014 19/17 A3008 RMK AO2
KHYI 240456Z AUTO 17008KT 10SM SCT016 BKN022 OVC037 19/17 A3008 RMK AO2 SLP180 T01890167
KHYI 240454Z AUTO 16008KT 10SM SCT016 BKN022 OVC037 19/17 A3008 RMK AO2
KHYI 240356Z AUTO 17013KT 10SM OVC031 20/17 A3008 RMK AO2 SLP179 T02000167
KHYI 240343Z AUTO 16014G18KT 10SM OVC031 20/17 A3008 RMK AO2
KHYI 240256Z AUTO 16013KT 10SM BKN023 OVC030 21/17 A3008 RMK AO2 SLP178 T02060167 52014
KHYI 240156Z AUTO 17009KT 10SM OVC027 21/16 A3008 RMK AO2 SLP177 T02110161
KHYI 240134Z AUTO 17008KT 10SM BKN027 OVC034 21/16 A3006 RMK AO2
KHYI 240056Z AUTO 17009KT 10SM OVC036 21/16 A3004 RMK AO2 SLP166 T02110161
KHYI 232356Z AUTO 17009KT 10SM OVC036 22/16 A3004 RMK AO2 SLP165 T02170161 10244 20217 55001
KHYI 232256Z 18009KT 10SM OVC040 22/16 A3003 RMK AO2 SLP161 T02170161
KHYI 232156Z 14009KT 10SM OVC037 23/16 A3003 RMK AO2 SLP162 T02280161
KHYI 232056Z 17014KT 10SM BKN044 OVC055 24/16 A3004 RMK AO2 SLP165 T02390156 56019
KHYI 231956Z 18011KT 10SM BKN038 OVC047 23/16 A3006 RMK AO2 SLP172 T02280156
KHYI 231856Z 16013KT 10SM BKN030 BKN034 OVC043 23/16 A3007 RMK AO2 SLP175 T02330161
KHYI 231836Z 16014KT 10SM BKN028 OVC041 24/17 A3008 RMK AO2
KHYI 231807Z 21013G19KT 10SM SCT026 BKN034 OVC043 24/17 A3009 RMK AO2
KHYI 231756Z 17012KT 10SM BKN026 BKN033 OVC043 23/16 A3010 RMK AO2 SLP184 T02280161 10228 20156 58005
KHYI 231556Z 16011KT 10SM OVC017 21/16 A3011 RMK AO2 SLP188 T02060156
KHYI 231456Z 17010KT 10SM OVC021 19/15 A3011 RMK AO2 SLP189 T01890150 51019
KHYI 231356Z 13006KT 10SM OVC021 17/14 A3010 RMK AO2 SLP187 T01720144
KHYI 231256Z 09003KT 10SM OVC023 16/13 A3008 RMK AO2 SLP180 T01610133
KHYI 231156Z 12004KT 10SM OVC023 16/13 A3006 RMK AO2 SLP170 T01610128 10178 20161 53007
KHYI 231056Z AUTO 17003KT 10SM OVC021 17/13 A3005 RMK AO2 SLP166 T01670133